TimeCST,TemperatureF,Dew PointF,Humidity,Sea Level PressureIn,VisibilityMPH,Wind Direction,Wind SpeedMPH,Gust SpeedMPH,PrecipitationIn,Events,Conditions,WindDirDegrees,DateUTC
12:15 AM,-5.8,-9.4,84,30.01,1.8,Calm,Calm,-,N/A,,Haze,0,2013-12-09 06:15:00
12:35 AM,-0.4,-5.8,78,30.01,7.0,SW,3.5,-,N/A,Snow,Light Snow,230,2013-12-09 06:35:00
12:55 AM,-2.2,-7.6,78,30.00,5.0,Calm,Calm,-,N/A,Snow,Light Snow,0,2013-12-09 06:55:00
1:15 AM,-2.2,-5.8,85,30.01,10.0,West,5.8,-,N/A,,Clear,270,2013-12-09 07:15:00
1:35 AM,-0.4,-5.8,78,30.00,10.0,West,5.8,-,N/A,,Clear,270,2013-12-09 07:35:00
1:56 AM,-0.4,-4.0,85,30.00,10.0,West,8.1,-,N/A,,Clear,270,2013-12-09 07:56:00
2:15 AM,-0.4,-5.8,78,30.00,10.0,West,9.2,-,N/A,,Clear,270,2013-12-09 08:15:00
2:35 AM,-0.4,-7.6,72,30.01,10.0,West,5.8,-,N/A,,Clear,270,2013-12-09 08:35:00
2:56 AM,-0.4,-5.8,78,30.01,7.0,West,9.2,-,N/A,,Clear,280,2013-12-09 08:56:00
3:15 AM,-0.4,-5.8,78,30.00,10.0,West,9.2,-,N/A,,Clear,280,2013-12-09 09:15:00
3:35 AM,-2.2,-7.6,78,30.00,10.0,West,9.2,-,N/A,,Clear,280,2013-12-09 09:35:00
3:56 AM,-2.2,-7.6,78,30.01,10.0,West,10.4,-,N/A,,Clear,280,2013-12-09 09:56:00
4:15 AM,-2.2,-7.6,78,30.00,10.0,WNW,11.5,-,N/A,,Clear,290,2013-12-09 10:15:00
4:35 AM,-4.0,-9.4,78,30.01,10.0,WNW,11.5,-,N/A,,Clear,290,2013-12-09 10:35:00
4:55 AM,-4.0,-9.4,78,30.01,10.0,WNW,10.4,-,N/A,,Clear,290,2013-12-09 10:55:00
5:15 AM,-5.8,-9.4,84,30.01,10.0,WNW,10.4,-,N/A,,Clear,290,2013-12-09 11:15:00
5:35 AM,-5.8,-11.2,77,30.01,10.0,West,10.4,-,N/A,,Clear,280,2013-12-09 11:35:00
5:55 AM,-5.8,-11.2,77,30.01,10.0,West,12.7,-,N/A,,Clear,280,2013-12-09 11:55:00
6:15 AM,-7.6,-13.0,77,30.01,10.0,West,11.5,-,N/A,,Clear,280,2013-12-09 12:15:00
6:35 AM,-7.6,-13.0,77,30.02,10.0,West,11.5,-,N/A,,Clear,280,2013-12-09 12:35:00
6:55 AM,-7.6,-13.0,77,30.03,10.0,West,12.7,17.3,N/A,,Clear,270,2013-12-09 12:55:00
7:15 AM,-7.6,-13.0,77,30.04,10.0,West,13.8,-,N/A,,Clear,270,2013-12-09 13:15:00
7:35 AM,-7.6,-13.0,77,30.05,10.0,West,13.8,-,N/A,,Clear,270,2013-12-09 13:35:00
7:55 AM,-7.6,-13.0,77,30.06,10.0,West,12.7,-,N/A,,Clear,270,2013-12-09 13:55:00
8:15 AM,-7.6,-13.0,77,30.06,10.0,West,12.7,-,N/A,,Scattered Clouds,270,2013-12-09 14:15:00
8:35 AM,-7.6,-14.8,71,30.06,10.0,West,16.1,-,N/A,,Mostly Cloudy,280,2013-12-09 14:35:00
8:55 AM,-7.6,-13.0,77,30.07,10.0,West,16.1,-,N/A,,Overcast,280,2013-12-09 14:55:00
9:15 AM,-7.6,-13.0,77,30.07,10.0,West,13.8,-,N/A,,Overcast,270,2013-12-09 15:15:00
9:35 AM,-5.8,-11.2,77,30.08,10.0,West,13.8,-,N/A,,Overcast,270,2013-12-09 15:35:00
9:55 AM,-5.8,-11.2,77,30.09,10.0,West,16.1,21.9,N/A,,Mostly Cloudy,280,2013-12-09 15:55:00
10:15 AM,-5.8,-11.2,77,30.09,10.0,West,16.1,-,N/A,,Scattered Clouds,280,2013-12-09 16:15:00
10:35 AM,-4.0,-11.2,71,30.09,7.0,West,19.6,-,N/A,,Clear,280,2013-12-09 16:35:00
10:55 AM,-4.0,-9.4,78,30.10,10.0,West,18.4,23.0,N/A,,Clear,280,2013-12-09 16:55:00
11:15 AM,-4.0,-9.4,78,30.10,10.0,West,17.3,-,N/A,,Clear,280,2013-12-09 17:15:00
11:36 AM,-2.2,-9.4,71,30.09,10.0,West,19.6,-,N/A,,Scattered Clouds,280,2013-12-09 17:36:00
11:55 AM,-2.2,-9.4,71,30.08,7.0,West,18.4,-,N/A,,Clear,280,2013-12-09 17:55:00
12:15 PM,-2.2,-9.4,71,30.08,7.0,West,18.4,25.3,N/A,,Clear,280,2013-12-09 18:15:00
12:35 PM,-2.2,-9.4,71,30.07,7.0,West,20.7,26.5,N/A,,Clear,280,2013-12-09 18:35:00
12:55 PM,-0.4,-9.4,66,30.08,7.0,West,18.4,-,N/A,,Clear,280,2013-12-09 18:55:00
1:15 PM,-0.4,-9.4,66,30.07,10.0,West,18.4,-,N/A,,Clear,280,2013-12-09 19:15:00
1:35 PM,-0.4,-9.4,66,30.06,10.0,West,15.0,-,N/A,,Clear,270,2013-12-09 19:35:00
1:55 PM,-0.4,-7.6,72,30.06,10.0,West,16.1,-,N/A,,Clear,270,2013-12-09 19:55:00
2:15 PM,-0.4,-7.6,72,30.05,10.0,West,11.5,-,N/A,,Clear,260,2013-12-09 20:15:00
2:35 PM,-0.4,-7.6,72,30.04,10.0,WSW,15.0,-,N/A,,Clear,240,2013-12-09 20:35:00
2:55 PM,-0.4,-9.4,66,30.03,10.0,West,11.5,-,N/A,,Clear,260,2013-12-09 20:55:00
3:15 PM,-0.4,-7.6,72,30.03,10.0,WSW,11.5,-,N/A,,Clear,240,2013-12-09 21:15:00
3:35 PM,-0.4,-7.6,72,30.03,10.0,WSW,12.7,-,N/A,,Clear,250,2013-12-09 21:35:00
3:55 PM,-0.4,-9.4,66,30.04,10.0,WSW,10.4,-,N/A,,Clear,240,2013-12-09 21:55:00
4:15 PM,-0.4,-9.4,66,30.04,10.0,SW,9.2,-,N/A,,Clear,230,2013-12-09 22:15:00
4:35 PM,-2.2,-9.4,71,30.03,10.0,SSW,4.6,-,N/A,,Clear,210,2013-12-09 22:35:00
4:55 PM,-2.2,-9.4,71,30.03,10.0,Calm,Calm,-,N/A,,Clear,0,2013-12-09 22:55:00
5:15 PM,-2.2,-9.4,71,30.01,10.0,Calm,Calm,-,N/A,,Clear,0,2013-12-09 23:15:00
5:35 PM,-2.2,-9.4,71,30.00,10.0,South,3.5,-,N/A,,Clear,190,2013-12-09 23:35:00
5:55 PM,-2.2,-9.4,71,29.99,10.0,South,3.5,-,N/A,,Clear,190,2013-12-09 23:55:00
6:15 PM,-0.4,-9.4,66,29.98,10.0,SSW,4.6,-,N/A,,Clear,200,2013-12-10 00:15:00
6:35 PM,-0.4,-9.4,66,29.97,10.0,South,8.1,-,N/A,,Clear,190,2013-12-10 00:35:00
6:55 PM,-0.4,-7.6,72,29.97,10.0,South,6.9,-,N/A,,Clear,190,2013-12-10 00:55:00
7:16 PM,-0.4,-9.4,66,29.95,10.0,SSW,5.8,-,N/A,,Clear,200,2013-12-10 01:16:00
7:35 PM,-0.4,-9.4,66,29.94,10.0,South,3.5,-,N/A,,Clear,170,2013-12-10 01:35:00
7:55 PM,-0.4,-9.4,66,29.93,10.0,South,4.6,-,N/A,,Clear,170,2013-12-10 01:55:00
8:15 PM,-0.4,-7.6,72,29.92,10.0,South,5.8,-,N/A,,Clear,170,2013-12-10 02:15:00
8:35 PM,-0.4,-7.6,72,29.90,10.0,SSE,9.2,-,N/A,,Clear,150,2013-12-10 02:35:00
8:55 PM,-0.4,-7.6,72,29.88,10.0,SSE,10.4,-,N/A,,Scattered Clouds,150,2013-12-10 02:55:00
9:15 PM,1.4,-7.6,66,29.85,10.0,SSE,11.5,-,N/A,,Mostly Cloudy,150,2013-12-10 03:15:00
9:35 PM,1.4,-5.8,72,29.83,10.0,SE,15.0,20.7,N/A,,Scattered Clouds,140,2013-12-10 03:35:00
9:55 PM,1.4,-5.8,72,29.81,10.0,SSE,11.5,-,N/A,Snow,Light Snow,150,2013-12-10 03:55:00
10:16 PM,3.2,-2.2,78,29.79,2.0,SE,12.7,-,N/A,Snow,Light Snow,140,2013-12-10 04:16:00
10:35 PM,5.0,-0.4,78,29.79,0.8,South,8.1,-,N/A,Snow,Snow,170,2013-12-10 04:35:00
10:55 PM,5.0,-0.4,78,29.78,2.0,SSE,11.5,-,N/A,Snow,Light Snow,160,2013-12-10 04:55:00
11:15 PM,5.0,-0.4,78,29.76,2.5,SSE,9.2,-,N/A,Snow,Light Snow,160,2013-12-10 05:15:00
11:35 PM,6.8,1.4,79,29.75,2.0,Calm,Calm,-,N/A,Snow,Light Snow,0,2013-12-10 05:35:00
11:55 PM,8.6,3.2,79,29.74,4.0,SSW,5.8,-,N/A,Snow,Light Snow,200,2013-12-10 05:55:00